sensor_id;sensor_type;location;lat;lon;timestamp;temperature;humidity
18002;DHT22;9126;48.160;17.130;2022-10-31T00:01:00;13.30;99.90
18002;DHT22;9126;48.160;17.130;2022-10-31T00:03:27;13.40;99.90
18002;DHT22;9126;48.160;17.130;2022-10-31T00:05:58;13.30;99.90
18002;DHT22;9126;48.160;17.130;2022-10-31T00:08:27;13.40;99.90
18002;DHT22;9126;48.160;17.130;2022-10-31T00:10:54;13.30;99.90
18002;DHT22;9126;48.160;17.130;2022-10-31T00:13:21;13.30;99.90
18002;DHT22;9126;48.160;17.130;2022-10-31T00:15:49;13.30;99.90
18002;DHT22;9126;48.160;17.130;2022-10-31T00:18:16;13.30;99.90
18002;DHT22;9126;48.160;17.130;2022-10-31T00:20:43;13.30;99.90
18002;DHT22;9126;48.160;17.130;2022-10-31T00:23:11;13.40;99.90
18002;DHT22;9126;48.160;17.130;2022-10-31T00:25:39;13.40;99.90
18002;DHT22;9126;48.160;17.130;2022-10-31T00:28:07;13.40;99.90
18002;DHT22;9126;48.160;17.130;2022-10-31T00:30:38;13.40;99.90
18002;DHT22;9126;48.160;17.130;2022-10-31T00:33:07;13.40;99.90
18002;DHT22;9126;48.160;17.130;2022-10-31T00:35:34;13.50;99.90
18002;DHT22;9126;48.160;17.130;2022-10-31T00:38:01;13.30;99.90
18002;DHT22;9126;48.160;17.130;2022-10-31T00:40:28;13.30;99.90
18002;DHT22;9126;48.160;17.130;2022-10-31T00:42:55;13.30;99.90
18002;DHT22;9126;48.160;17.130;2022-10-31T00:45:22;13.30;99.90
18002;DHT22;9126;48.160;17.130;2022-10-31T00:47:49;13.30;99.90
18002;DHT22;9126;48.160;17.130;2022-10-31T00:50:17;13.30;99.90
18002;DHT22;9126;48.160;17.130;2022-10-31T00:52:44;13.30;99.90
18002;DHT22;9126;48.160;17.130;2022-10-31T00:55:11;13.30;99.90
18002;DHT22;9126;48.160;17.130;2022-10-31T00:57:39;13.30;99.90
18002;DHT22;9126;48.160;17.130;2022-10-31T01:00:07;13.30;99.90
18002;DHT22;9126;48.160;17.130;2022-10-31T01:02:34;13.30;99.90
18002;DHT22;9126;48.160;17.130;2022-10-31T01:05:01;13.30;99.90
18002;DHT22;9126;48.160;17.130;2022-10-31T01:07:30;13.40;99.90
18002;DHT22;9126;48.160;17.130;2022-10-31T01:09:57;13.40;99.90
18002;DHT22;9126;48.160;17.130;2022-10-31T01:12:24;13.40;99.90
18002;DHT22;9126;48.160;17.130;2022-10-31T01:14:51;13.30;99.90
18002;DHT22;9126;48.160;17.130;2022-10-31T01:17:17;13.10;99.90
18002;DHT22;9126;48.160;17.130;2022-10-31T01:19:44;13.10;99.90
18002;DHT22;9126;48.160;17.130;2022-10-31T01:22:11;13.10;99.90
18002;DHT22;9126;48.160;17.130;2022-10-31T01:24:40;13.20;99.90
18002;DHT22;9126;48.160;17.130;2022-10-31T01:27:07;13.20;99.90
18002;DHT22;9126;48.160;17.130;2022-10-31T01:29:34;13.20;99.90
18002;DHT22;9126;48.160;17.130;2022-10-31T01:32:01;13.20;99.90
18002;DHT22;9126;48.160;17.130;2022-10-31T01:34:28;13.30;99.90
18002;DHT22;9126;48.160;17.130;2022-10-31T01:36:55;13.30;99.90
18002;DHT22;9126;48.160;17.130;2022-10-31T01:39:22;13.30;99.90
18002;DHT22;9126;48.160;17.130;2022-10-31T01:41:52;13.30;99.90
18002;DHT22;9126;48.160;17.130;2022-10-31T01:44:52;13.30;99.90
18002;DHT22;9126;48.160;17.130;2022-10-31T01:47:25;13.30;99.90
18002;DHT22;9126;48.160;17.130;2022-10-31T01:49:55;13.30;99.90
18002;DHT22;9126;48.160;17.130;2022-10-31T01:52:25;13.30;99.90
18002;DHT22;9126;48.160;17.130;2022-10-31T01:54:57;13.30;99.90
18002;DHT22;9126;48.160;17.130;2022-10-31T01:57:27;13.20;99.90
18002;DHT22;9126;48.160;17.130;2022-10-31T01:59:57;13.20;99.90
18002;DHT22;9126;48.160;17.130;2022-10-31T02:02:26;13.10;99.90
18002;DHT22;9126;48.160;17.130;2022-10-31T02:04:54;12.90;99.90
18002;DHT22;9126;48.160;17.130;2022-10-31T02:07:26;12.80;99.90
18002;DHT22;9126;48.160;17.130;2022-10-31T02:09:55;12.90;99.90
18002;DHT22;9126;48.160;17.130;2022-10-31T02:12:25;12.90;99.90
18002;DHT22;9126;48.160;17.130;2022-10-31T02:14:53;12.80;99.90
18002;DHT22;9126;48.160;17.130;2022-10-31T02:17:20;12.80;99.90
18002;DHT22;9126;48.160;17.130;2022-10-31T02:19:56;12.90;99.90
18002;DHT22;9126;48.160;17.130;2022-10-31T02:22:32;13.00;99.90
18002;DHT22;9126;48.160;17.130;2022-10-31T02:25:22;13.00;99.90
18002;DHT22;9126;48.160;17.130;2022-10-31T02:28:14;13.00;99.90
18002;DHT22;9126;48.160;17.130;2022-10-31T02:31:05;13.00;99.90
18002;DHT22;9126;48.160;17.130;2022-10-31T02:33:39;13.00;99.90
18002;DHT22;9126;48.160;17.130;2022-10-31T02:36:13;13.00;99.90
18002;DHT22;9126;48.160;17.130;2022-10-31T02:38:51;13.00;99.90
18002;DHT22;9126;48.160;17.130;2022-10-31T02:41:24;13.00;99.90
18002;DHT22;9126;48.160;17.130;2022-10-31T02:44:00;13.00;99.90
18002;DHT22;9126;48.160;17.130;2022-10-31T02:46:34;13.10;99.90
18002;DHT22;9126;48.160;17.130;2022-10-31T02:49:07;13.00;99.90
18002;DHT22;9126;48.160;17.130;2022-10-31T02:51:37;13.10;99.90
18002;DHT22;9126;48.160;17.130;2022-10-31T02:54:05;13.10;99.90
18002;DHT22;9126;48.160;17.130;2022-10-31T02:56:41;13.10;99.90
18002;DHT22;9126;48.160;17.130;2022-10-31T02:59:09;13.10;99.90
18002;DHT22;9126;48.160;17.130;2022-10-31T03:01:48;13.20;99.90
18002;DHT22;9126;48.160;17.130;2022-10-31T03:04:52;13.20;99.90
18002;DHT22;9126;48.160;17.130;2022-10-31T03:07:51;13.10;99.90
18002;DHT22;9126;48.160;17.130;2022-10-31T03:10:45;13.00;99.90
18002;DHT22;9126;48.160;17.130;2022-10-31T03:13:37;13.00;99.90
18002;DHT22;9126;48.160;17.130;2022-10-31T03:16:29;13.00;99.90
18002;DHT22;9126;48.160;17.130;2022-10-31T03:19:24;13.10;99.90
18002;DHT22;9126;48.160;17.130;2022-10-31T03:22:16;13.00;99.90
18002;DHT22;9126;48.160;17.130;2022-10-31T03:25:05;13.00;99.90
18002;DHT22;9126;48.160;17.130;2022-10-31T03:27:54;13.00;99.90
18002;DHT22;9126;48.160;17.130;2022-10-31T03:30:43;13.00;99.90
18002;DHT22;9126;48.160;17.130;2022-10-31T03:33:34;13.00;99.90
18002;DHT22;9126;48.160;17.130;2022-10-31T03:36:24;13.00;99.90
18002;DHT22;9126;48.160;17.130;2022-10-31T03:39:13;13.10;99.90
18002;DHT22;9126;48.160;17.130;2022-10-31T03:42:05;13.10;99.90
18002;DHT22;9126;48.160;17.130;2022-10-31T03:44:58;13.10;99.90
18002;DHT22;9126;48.160;17.130;2022-10-31T03:47:46;13.10;99.90
18002;DHT22;9126;48.160;17.130;2022-10-31T03:50:38;13.10;99.90
18002;DHT22;9126;48.160;17.130;2022-10-31T03:53:32;13.10;99.90
18002;DHT22;9126;48.160;17.130;2022-10-31T03:56:24;13.10;99.90
18002;DHT22;9126;48.160;17.130;2022-10-31T03:59:17;13.10;99.90
18002;DHT22;9126;48.160;17.130;2022-10-31T04:02:07;13.10;99.90
18002;DHT22;9126;48.160;17.130;2022-10-31T04:04:57;13.20;99.90
18002;DHT22;9126;48.160;17.130;2022-10-31T04:07:47;13.10;99.90
18002;DHT22;9126;48.160;17.130;2022-10-31T04:10:38;13.10;99.90
18002;DHT22;9126;48.160;17.130;2022-10-31T04:13:29;13.00;99.90
18002;DHT22;9126;48.160;17.130;2022-10-31T04:16:17;12.90;99.90
18002;DHT22;9126;48.160;17.130;2022-10-31T04:19:05;12.90;99.90
18002;DHT22;9126;48.160;17.130;2022-10-31T04:21:52;13.00;99.90
18002;DHT22;9126;48.160;17.130;2022-10-31T04:24:40;13.00;99.90
18002;DHT22;9126;48.160;17.130;2022-10-31T04:27:28;13.10;99.90
18002;DHT22;9126;48.160;17.130;2022-10-31T04:30:15;13.10;99.90
18002;DHT22;9126;48.160;17.130;2022-10-31T04:33:02;13.00;99.90
18002;DHT22;9126;48.160;17.130;2022-10-31T04:35:49;13.00;99.90
18002;DHT22;9126;48.160;17.130;2022-10-31T04:38:36;13.00;99.90
18002;DHT22;9126;48.160;17.130;2022-10-31T04:41:22;13.00;99.90
18002;DHT22;9126;48.160;17.130;2022-10-31T04:44:11;13.10;99.90
18002;DHT22;9126;48.160;17.130;2022-10-31T04:46:58;13.10;99.90
18002;DHT22;9126;48.160;17.130;2022-10-31T04:49:45;13.10;99.90
18002;DHT22;9126;48.160;17.130;2022-10-31T04:52:32;13.20;99.90
18002;DHT22;9126;48.160;17.130;2022-10-31T04:55:19;13.20;99.90
18002;DHT22;9126;48.160;17.130;2022-10-31T04:58:06;13.20;99.90
18002;DHT22;9126;48.160;17.130;2022-10-31T05:00:54;13.20;99.90
18002;DHT22;9126;48.160;17.130;2022-10-31T05:03:41;13.10;99.90
18002;DHT22;9126;48.160;17.130;2022-10-31T05:06:28;13.00;99.90
18002;DHT22;9126;48.160;17.130;2022-10-31T05:09:15;13.00;99.90
18002;DHT22;9126;48.160;17.130;2022-10-31T05:12:02;13.00;99.90
18002;DHT22;9126;48.160;17.130;2022-10-31T05:14:49;13.00;99.90
18002;DHT22;9126;48.160;17.130;2022-10-31T05:17:37;13.00;99.90
18002;DHT22;9126;48.160;17.130;2022-10-31T05:20:26;12.90;99.90
18002;DHT22;9126;48.160;17.130;2022-10-31T05:23:13;12.90;99.90
18002;DHT22;9126;48.160;17.130;2022-10-31T05:26:00;12.90;99.90
18002;DHT22;9126;48.160;17.130;2022-10-31T05:28:47;12.90;99.90
18002;DHT22;9126;48.160;17.130;2022-10-31T05:31:34;12.90;99.90
18002;DHT22;9126;48.160;17.130;2022-10-31T05:34:22;12.90;99.90
18002;DHT22;9126;48.160;17.130;2022-10-31T05:37:09;12.90;99.90
18002;DHT22;9126;48.160;17.130;2022-10-31T05:39:56;12.90;99.90
18002;DHT22;9126;48.160;17.130;2022-10-31T05:42:43;13.00;99.90
18002;DHT22;9126;48.160;17.130;2022-10-31T05:45:30;13.00;99.90
18002;DHT22;9126;48.160;17.130;2022-10-31T05:48:17;13.10;99.90
18002;DHT22;9126;48.160;17.130;2022-10-31T05:51:05;13.10;99.90
18002;DHT22;9126;48.160;17.130;2022-10-31T05:53:53;13.10;99.90
18002;DHT22;9126;48.160;17.130;2022-10-31T05:56:40;13.10;99.90
18002;DHT22;9126;48.160;17.130;2022-10-31T05:59:27;13.10;99.90
18002;DHT22;9126;48.160;17.130;2022-10-31T06:02:14;13.10;99.90
18002;DHT22;9126;48.160;17.130;2022-10-31T06:05:00;13.10;99.90
18002;DHT22;9126;48.160;17.130;2022-10-31T06:07:49;13.10;99.90
18002;DHT22;9126;48.160;17.130;2022-10-31T06:10:36;13.00;99.90
18002;DHT22;9126;48.160;17.130;2022-10-31T06:13:23;13.00;99.90
18002;DHT22;9126;48.160;17.130;2022-10-31T06:16:10;12.80;99.90
18002;DHT22;9126;48.160;17.130;2022-10-31T06:18:57;12.80;99.90
18002;DHT22;9126;48.160;17.130;2022-10-31T06:21:43;12.70;99.90
18002;DHT22;9126;48.160;17.130;2022-10-31T06:24:32;12.80;99.90
18002;DHT22;9126;48.160;17.130;2022-10-31T06:27:19;12.90;99.90
18002;DHT22;9126;48.160;17.130;2022-10-31T06:30:07;13.00;99.90
18002;DHT22;9126;48.160;17.130;2022-10-31T06:32:54;13.00;99.90
18002;DHT22;9126;48.160;17.130;2022-10-31T06:35:45;13.00;99.90
18002;DHT22;9126;48.160;17.130;2022-10-31T06:38:32;13.10;99.90
18002;DHT22;9126;48.160;17.130;2022-10-31T06:41:21;13.20;99.90
18002;DHT22;9126;48.160;17.130;2022-10-31T06:44:08;13.20;99.90
18002;DHT22;9126;48.160;17.130;2022-10-31T06:46:54;13.20;99.90
18002;DHT22;9126;48.160;17.130;2022-10-31T06:49:41;13.10;99.90
18002;DHT22;9126;48.160;17.130;2022-10-31T06:52:28;12.90;99.90
18002;DHT22;9126;48.160;17.130;2022-10-31T06:55:15;12.90;99.90
18002;DHT22;9126;48.160;17.130;2022-10-31T06:58:04;12.90;99.90
18002;DHT22;9126;48.160;17.130;2022-10-31T07:00:51;13.00;99.90
18002;DHT22;9126;48.160;17.130;2022-10-31T07:03:37;13.10;99.90
18002;DHT22;9126;48.160;17.130;2022-10-31T07:06:24;13.10;99.90
18002;DHT22;9126;48.160;17.130;2022-10-31T07:09:11;13.10;99.90
18002;DHT22;9126;48.160;17.130;2022-10-31T07:11:58;13.10;99.90
18002;DHT22;9126;48.160;17.130;2022-10-31T07:14:46;13.10;99.90
18002;DHT22;9126;48.160;17.130;2022-10-31T07:17:33;13.20;99.90
18002;DHT22;9126;48.160;17.130;2022-10-31T07:20:20;13.40;99.90
18002;DHT22;9126;48.160;17.130;2022-10-31T07:23:08;13.40;99.90
18002;DHT22;9126;48.160;17.130;2022-10-31T07:25:56;13.40;99.90
18002;DHT22;9126;48.160;17.130;2022-10-31T07:28:43;13.40;99.90
18002;DHT22;9126;48.160;17.130;2022-10-31T07:31:31;13.50;99.90
18002;DHT22;9126;48.160;17.130;2022-10-31T07:34:18;13.50;99.90
18002;DHT22;9126;48.160;17.130;2022-10-31T07:37:05;13.50;99.80
18002;DHT22;9126;48.160;17.130;2022-10-31T07:39:51;13.50;99.90
18002;DHT22;9126;48.160;17.130;2022-10-31T07:42:40;13.60;99.90
18002;DHT22;9126;48.160;17.130;2022-10-31T07:45:27;13.70;99.80
18002;DHT22;9126;48.160;17.130;2022-10-31T07:48:15;13.60;99.50
18002;DHT22;9126;48.160;17.130;2022-10-31T07:51:02;13.70;99.60
18002;DHT22;9126;48.160;17.130;2022-10-31T07:53:49;13.70;99.50
18002;DHT22;9126;48.160;17.130;2022-10-31T07:56:36;13.80;99.40
18002;DHT22;9126;48.160;17.130;2022-10-31T07:59:22;13.80;99.20
18002;DHT22;9126;48.160;17.130;2022-10-31T08:02:11;13.90;99.20
18002;DHT22;9126;48.160;17.130;2022-10-31T08:04:59;13.90;99.00
18002;DHT22;9126;48.160;17.130;2022-10-31T08:07:47;13.90;99.10
18002;DHT22;9126;48.160;17.130;2022-10-31T08:10:34;14.00;98.80
18002;DHT22;9126;48.160;17.130;2022-10-31T08:13:21;14.00;98.50
18002;DHT22;9126;48.160;17.130;2022-10-31T08:16:08;13.90;98.40
18002;DHT22;9126;48.160;17.130;2022-10-31T08:18:55;14.00;98.60
18002;DHT22;9126;48.160;17.130;2022-10-31T08:21:43;14.00;98.60
18002;DHT22;9126;48.160;17.130;2022-10-31T08:24:30;14.10;98.50
18002;DHT22;9126;48.160;17.130;2022-10-31T08:27:17;14.10;98.40
18002;DHT22;9126;48.160;17.130;2022-10-31T08:30:05;14.10;98.40
18002;DHT22;9126;48.160;17.130;2022-10-31T08:33:02;14.10;98.20
18002;DHT22;9126;48.160;17.130;2022-10-31T08:35:49;14.20;98.20
18002;DHT22;9126;48.160;17.130;2022-10-31T08:38:38;14.20;98.10
18002;DHT22;9126;48.160;17.130;2022-10-31T08:41:25;14.20;97.90
18002;DHT22;9126;48.160;17.130;2022-10-31T08:44:11;14.10;97.80
18002;DHT22;9126;48.160;17.130;2022-10-31T08:46:58;14.10;97.60
18002;DHT22;9126;48.160;17.130;2022-10-31T08:49:44;14.10;97.50
18002;DHT22;9126;48.160;17.130;2022-10-31T08:52:30;14.00;97.50
18002;DHT22;9126;48.160;17.130;2022-10-31T08:55:17;14.00;97.30
18002;DHT22;9126;48.160;17.130;2022-10-31T08:58:04;13.90;97.40
18002;DHT22;9126;48.160;17.130;2022-10-31T09:00:51;14.00;97.60
18002;DHT22;9126;48.160;17.130;2022-10-31T09:03:37;14.00;97.50
18002;DHT22;9126;48.160;17.130;2022-10-31T09:06:23;14.10;97.50
18002;DHT22;9126;48.160;17.130;2022-10-31T09:09:08;14.20;97.40
18002;DHT22;9126;48.160;17.130;2022-10-31T09:11:55;14.20;97.00
18002;DHT22;9126;48.160;17.130;2022-10-31T09:14:41;14.10;96.90
18002;DHT22;9126;48.160;17.130;2022-10-31T09:17:27;14.10;96.90
18002;DHT22;9126;48.160;17.130;2022-10-31T09:20:13;14.20;96.90
18002;DHT22;9126;48.160;17.130;2022-10-31T09:23:00;14.30;96.80
18002;DHT22;9126;48.160;17.130;2022-10-31T09:25:50;14.30;96.50
18002;DHT22;9126;48.160;17.130;2022-10-31T09:28:38;14.30;96.30
18002;DHT22;9126;48.160;17.130;2022-10-31T09:31:24;14.20;96.10
18002;DHT22;9126;48.160;17.130;2022-10-31T09:34:09;14.30;96.10
18002;DHT22;9126;48.160;17.130;2022-10-31T09:36:57;14.50;95.90
18002;DHT22;9126;48.160;17.130;2022-10-31T09:39:43;14.40;95.40
18002;DHT22;9126;48.160;17.130;2022-10-31T09:42:45;14.50;95.40
18002;DHT22;9126;48.160;17.130;2022-10-31T09:45:38;14.50;95.10
18002;DHT22;9126;48.160;17.130;2022-10-31T09:48:53;14.40;94.80
18002;DHT22;9126;48.160;17.130;2022-10-31T09:51:48;14.40;95.00
18002;DHT22;9126;48.160;17.130;2022-10-31T09:54:40;14.40;95.00
18002;DHT22;9126;48.160;17.130;2022-10-31T09:57:29;14.50;94.90
18002;DHT22;9126;48.160;17.130;2022-10-31T10:00:19;14.60;94.70
18002;DHT22;9126;48.160;17.130;2022-10-31T10:03:13;14.60;94.40
18002;DHT22;9126;48.160;17.130;2022-10-31T10:06:11;14.70;94.30
18002;DHT22;9126;48.160;17.130;2022-10-31T10:08:58;14.60;94.20
18002;DHT22;9126;48.160;17.130;2022-10-31T10:11:51;14.40;94.20
18002;DHT22;9126;48.160;17.130;2022-10-31T10:14:54;14.30;94.20
18002;DHT22;9126;48.160;17.130;2022-10-31T10:17:52;14.30;94.40
18002;DHT22;9126;48.160;17.130;2022-10-31T10:20:58;14.40;94.50
18002;DHT22;9126;48.160;17.130;2022-10-31T10:27:09;14.50;94.30
18002;DHT22;9126;48.160;17.130;2022-10-31T10:30:00;14.50;94.20
18002;DHT22;9126;48.160;17.130;2022-10-31T10:32:49;14.50;94.10
18002;DHT22;9126;48.160;17.130;2022-10-31T10:35:40;14.60;94.00
18002;DHT22;9126;48.160;17.130;2022-10-31T10:38:32;14.50;93.60
18002;DHT22;9126;48.160;17.130;2022-10-31T10:41:21;14.30;93.70
18002;DHT22;9126;48.160;17.130;2022-10-31T10:44:09;14.10;93.80
18002;DHT22;9126;48.160;17.130;2022-10-31T10:46:58;14.10;94.10
18002;DHT22;9126;48.160;17.130;2022-10-31T10:50:05;14.10;94.30
18002;DHT22;9126;48.160;17.130;2022-10-31T10:52:58;14.20;94.40
18002;DHT22;9126;48.160;17.130;2022-10-31T10:55:53;14.20;94.30
18002;DHT22;9126;48.160;17.130;2022-10-31T10:58:42;14.30;94.30
18002;DHT22;9126;48.160;17.130;2022-10-31T11:01:31;14.40;94.20
18002;DHT22;9126;48.160;17.130;2022-10-31T11:04:31;14.50;94.00
18002;DHT22;9126;48.160;17.130;2022-10-31T11:07:17;14.50;94.00
18002;DHT22;9126;48.160;17.130;2022-10-31T11:10:04;14.50;93.80
18002;DHT22;9126;48.160;17.130;2022-10-31T11:13:03;14.50;93.80
18002;DHT22;9126;48.160;17.130;2022-10-31T11:15:57;14.50;93.90
18002;DHT22;9126;48.160;17.130;2022-10-31T11:18:46;14.60;93.80
18002;DHT22;9126;48.160;17.130;2022-10-31T11:21:32;14.70;93.60
18002;DHT22;9126;48.160;17.130;2022-10-31T11:24:20;14.60;93.40
18002;DHT22;9126;48.160;17.130;2022-10-31T11:27:14;14.60;93.30
18002;DHT22;9126;48.160;17.130;2022-10-31T11:30:12;14.60;93.20
18002;DHT22;9126;48.160;17.130;2022-10-31T11:32:58;14.60;93.20
18002;DHT22;9126;48.160;17.130;2022-10-31T11:35:44;14.70;93.10
18002;DHT22;9126;48.160;17.130;2022-10-31T11:38:35;14.80;92.80
18002;DHT22;9126;48.160;17.130;2022-10-31T11:41:27;14.80;92.70
18002;DHT22;9126;48.160;17.130;2022-10-31T11:44:17;14.80;92.70
18002;DHT22;9126;48.160;17.130;2022-10-31T11:47:05;14.90;92.40
18002;DHT22;9126;48.160;17.130;2022-10-31T11:49:51;14.80;92.20
18002;DHT22;9126;48.160;17.130;2022-10-31T11:52:38;14.70;92.20
18002;DHT22;9126;48.160;17.130;2022-10-31T11:55:32;14.60;92.20
18002;DHT22;9126;48.160;17.130;2022-10-31T11:58:23;14.50;92.50
18002;DHT22;9126;48.160;17.130;2022-10-31T12:01:24;14.60;92.60
18002;DHT22;9126;48.160;17.130;2022-10-31T12:04:12;14.70;92.60
18002;DHT22;9126;48.160;17.130;2022-10-31T12:06:58;14.70;92.40
18002;DHT22;9126;48.160;17.130;2022-10-31T12:09:44;14.70;92.40
18002;DHT22;9126;48.160;17.130;2022-10-31T12:12:39;14.40;92.30
18002;DHT22;9126;48.160;17.130;2022-10-31T12:15:30;14.30;92.40
18002;DHT22;9126;48.160;17.130;2022-10-31T12:18:32;14.30;92.70
18002;DHT22;9126;48.160;17.130;2022-10-31T12:21:34;14.40;92.80
18002;DHT22;9126;48.160;17.130;2022-10-31T12:24:35;14.50;92.90
18002;DHT22;9126;48.160;17.130;2022-10-31T12:27:36;14.50;92.80
18002;DHT22;9126;48.160;17.130;2022-10-31T12:30:29;14.60;92.70
18002;DHT22;9126;48.160;17.130;2022-10-31T12:33:36;14.60;92.60
18002;DHT22;9126;48.160;17.130;2022-10-31T12:36:38;14.60;92.60
18002;DHT22;9126;48.160;17.130;2022-10-31T12:39:36;14.60;92.40
18002;DHT22;9126;48.160;17.130;2022-10-31T12:42:32;14.70;92.40
18002;DHT22;9126;48.160;17.130;2022-10-31T12:45:39;14.70;92.30
18002;DHT22;9126;48.160;17.130;2022-10-31T12:48:42;14.70;92.00
18002;DHT22;9126;48.160;17.130;2022-10-31T12:51:39;14.50;92.20
18002;DHT22;9126;48.160;17.130;2022-10-31T12:54:40;14.50;92.20
18002;DHT22;9126;48.160;17.130;2022-10-31T12:57:32;14.60;92.30
18002;DHT22;9126;48.160;17.130;2022-10-31T13:00:20;14.60;92.10
18002;DHT22;9126;48.160;17.130;2022-10-31T13:03:18;14.50;92.10
18002;DHT22;9126;48.160;17.130;2022-10-31T13:06:07;14.50;92.40
18002;DHT22;9126;48.160;17.130;2022-10-31T13:08:58;14.50;92.40
18002;DHT22;9126;48.160;17.130;2022-10-31T13:11:46;14.50;92.40
18002;DHT22;9126;48.160;17.130;2022-10-31T13:14:35;14.40;92.50
18002;DHT22;9126;48.160;17.130;2022-10-31T13:17:31;14.40;92.60
18002;DHT22;9126;48.160;17.130;2022-10-31T13:20:23;14.30;92.70
18002;DHT22;9126;48.160;17.130;2022-10-31T13:23:13;14.30;93.10
18002;DHT22;9126;48.160;17.130;2022-10-31T13:26:11;14.20;92.80
18002;DHT22;9126;48.160;17.130;2022-10-31T13:29:04;14.10;93.40
18002;DHT22;9126;48.160;17.130;2022-10-31T13:31:50;14.10;93.30
18002;DHT22;9126;48.160;17.130;2022-10-31T13:34:39;14.20;93.50
18002;DHT22;9126;48.160;17.130;2022-10-31T13:37:29;14.20;93.50
18002;DHT22;9126;48.160;17.130;2022-10-31T13:40:34;14.20;93.50
18002;DHT22;9126;48.160;17.130;2022-10-31T13:43:28;14.20;93.80
18002;DHT22;9126;48.160;17.130;2022-10-31T13:46:26;14.10;93.90
18002;DHT22;9126;48.160;17.130;2022-10-31T13:49:40;14.20;94.10
18002;DHT22;9126;48.160;17.130;2022-10-31T13:52:26;14.20;94.30
18002;DHT22;9126;48.160;17.130;2022-10-31T13:55:34;14.10;94.40
18002;DHT22;9126;48.160;17.130;2022-10-31T13:58:24;14.20;94.40
18002;DHT22;9126;48.160;17.130;2022-10-31T14:01:16;14.10;94.50
18002;DHT22;9126;48.160;17.130;2022-10-31T14:04:05;14.10;94.70
18002;DHT22;9126;48.160;17.130;2022-10-31T14:06:57;14.00;94.70
18002;DHT22;9126;48.160;17.130;2022-10-31T14:09:53;13.90;94.60
18002;DHT22;9126;48.160;17.130;2022-10-31T14:12:42;13.60;95.30
18002;DHT22;9126;48.160;17.130;2022-10-31T14:15:30;13.70;95.70
18002;DHT22;9126;48.160;17.130;2022-10-31T14:18:21;13.80;95.70
18002;DHT22;9126;48.160;17.130;2022-10-31T14:21:15;13.60;95.70
18002;DHT22;9126;48.160;17.130;2022-10-31T14:24:01;13.60;96.00
18002;DHT22;9126;48.160;17.130;2022-10-31T14:26:59;13.60;96.00
18002;DHT22;9126;48.160;17.130;2022-10-31T14:29:45;13.60;96.30
18002;DHT22;9126;48.160;17.130;2022-10-31T14:32:32;13.60;96.40
18002;DHT22;9126;48.160;17.130;2022-10-31T14:35:25;13.60;96.50
18002;DHT22;9126;48.160;17.130;2022-10-31T14:38:34;13.60;96.70
18002;DHT22;9126;48.160;17.130;2022-10-31T14:41:42;13.60;96.90
18002;DHT22;9126;48.160;17.130;2022-10-31T14:45:05;13.60;97.00
18002;DHT22;9126;48.160;17.130;2022-10-31T14:48:10;13.50;97.20
18002;DHT22;9126;48.160;17.130;2022-10-31T14:50:58;13.50;97.20
18002;DHT22;9126;48.160;17.130;2022-10-31T14:53:47;13.40;97.40
18002;DHT22;9126;48.160;17.130;2022-10-31T14:56:35;13.40;97.60
18002;DHT22;9126;48.160;17.130;2022-10-31T14:59:24;13.50;97.70
18002;DHT22;9126;48.160;17.130;2022-10-31T15:02:14;13.50;97.60
18002;DHT22;9126;48.160;17.130;2022-10-31T15:05:07;13.40;97.50
18002;DHT22;9126;48.160;17.130;2022-10-31T15:07:53;13.40;97.40
18002;DHT22;9126;48.160;17.130;2022-10-31T15:10:44;13.20;97.60
18002;DHT22;9126;48.160;17.130;2022-10-31T15:13:31;13.20;98.10
18002;DHT22;9126;48.160;17.130;2022-10-31T15:16:19;13.30;98.20
18002;DHT22;9126;48.160;17.130;2022-10-31T15:19:09;13.30;98.10
18002;DHT22;9126;48.160;17.130;2022-10-31T15:21:57;13.40;97.90
18002;DHT22;9126;48.160;17.130;2022-10-31T15:24:43;13.40;98.10
18002;DHT22;9126;48.160;17.130;2022-10-31T15:27:29;13.40;98.00
18002;DHT22;9126;48.160;17.130;2022-10-31T15:30:18;13.30;97.90
18002;DHT22;9126;48.160;17.130;2022-10-31T15:33:18;13.20;97.70
18002;DHT22;9126;48.160;17.130;2022-10-31T15:36:05;13.10;98.20
18002;DHT22;9126;48.160;17.130;2022-10-31T15:38:54;13.00;98.30
18002;DHT22;9126;48.160;17.130;2022-10-31T15:41:47;12.80;98.70
18002;DHT22;9126;48.160;17.130;2022-10-31T15:44:35;12.80;99.10
18002;DHT22;9126;48.160;17.130;2022-10-31T15:47:22;13.00;99.20
18002;DHT22;9126;48.160;17.130;2022-10-31T15:50:19;13.10;99.40
18002;DHT22;9126;48.160;17.130;2022-10-31T15:53:16;13.30;98.90
18002;DHT22;9126;48.160;17.130;2022-10-31T15:56:19;13.30;98.70
18002;DHT22;9126;48.160;17.130;2022-10-31T15:58:49;13.30;98.80
18002;DHT22;9126;48.160;17.130;2022-10-31T16:01:22;13.30;98.60
18002;DHT22;9126;48.160;17.130;2022-10-31T16:04:21;13.20;98.50
18002;DHT22;9126;48.160;17.130;2022-10-31T16:07:02;13.20;98.90
18002;DHT22;9126;48.160;17.130;2022-10-31T16:09:49;13.10;99.00
18002;DHT22;9126;48.160;17.130;2022-10-31T16:12:17;13.10;99.20
18002;DHT22;9126;48.160;17.130;2022-10-31T16:14:45;13.00;99.50
18002;DHT22;9126;48.160;17.130;2022-10-31T16:17:13;13.00;99.90
18002;DHT22;9126;48.160;17.130;2022-10-31T16:19:50;13.10;99.90
18002;DHT22;9126;48.160;17.130;2022-10-31T16:22:25;13.00;99.90
18002;DHT22;9126;48.160;17.130;2022-10-31T16:24:56;12.90;99.90
18002;DHT22;9126;48.160;17.130;2022-10-31T16:27:26;12.90;99.90
18002;DHT22;9126;48.160;17.130;2022-10-31T16:29:56;12.90;99.90
18002;DHT22;9126;48.160;17.130;2022-10-31T16:32:32;13.00;99.90
18002;DHT22;9126;48.160;17.130;2022-10-31T16:35:02;13.00;99.90
18002;DHT22;9126;48.160;17.130;2022-10-31T16:37:43;13.00;99.90
18002;DHT22;9126;48.160;17.130;2022-10-31T16:40:10;13.00;99.90
18002;DHT22;9126;48.160;17.130;2022-10-31T16:42:40;12.90;99.90
18002;DHT22;9126;48.160;17.130;2022-10-31T16:45:08;12.90;99.90
18002;DHT22;9126;48.160;17.130;2022-10-31T16:47:39;12.80;99.90
18002;DHT22;9126;48.160;17.130;2022-10-31T16:50:12;12.90;99.90
18002;DHT22;9126;48.160;17.130;2022-10-31T16:52:41;12.90;99.90
18002;DHT22;9126;48.160;17.130;2022-10-31T16:55:12;12.90;99.90
18002;DHT22;9126;48.160;17.130;2022-10-31T16:57:42;12.80;99.90
18002;DHT22;9126;48.160;17.130;2022-10-31T17:00:13;12.70;99.90
18002;DHT22;9126;48.160;17.130;2022-10-31T17:02:43;12.70;99.90
18002;DHT22;9126;48.160;17.130;2022-10-31T17:05:13;12.80;99.90
18002;DHT22;9126;48.160;17.130;2022-10-31T17:07:41;12.80;99.90
18002;DHT22;9126;48.160;17.130;2022-10-31T17:10:09;12.90;99.90
18002;DHT22;9126;48.160;17.130;2022-10-31T17:12:37;12.90;99.90
18002;DHT22;9126;48.160;17.130;2022-10-31T17:15:13;12.90;99.90
18002;DHT22;9126;48.160;17.130;2022-10-31T17:17:42;12.90;99.90
18002;DHT22;9126;48.160;17.130;2022-10-31T17:20:22;12.90;99.90
18002;DHT22;9126;48.160;17.130;2022-10-31T17:22:53;12.80;99.90
18002;DHT22;9126;48.160;17.130;2022-10-31T17:25:22;12.70;99.90